createdAt,value
2019-06-20T00:00:38.556Z,62.19
2019-06-20T00:01:38.551Z,62.49
2019-06-20T00:02:38.525Z,61.89
2019-06-20T00:03:38.536Z,61.99
2019-06-20T00:04:38.517Z,61.89
2019-06-20T00:05:38.505Z,62.09
2019-06-20T00:06:38.549Z,62.09
2019-06-20T00:07:38.488Z,61.89
2019-06-20T00:08:38.478Z,61.79
2019-06-20T00:09:38.456Z,61.89
2019-06-20T00:10:38.456Z,61.89
2019-06-20T00:11:38.425Z,62.19
2019-06-20T00:12:38.417Z,62.40
2019-06-20T00:13:38.447Z,62.60
2019-06-20T00:14:38.407Z,62.43
2019-06-20T00:15:38.396Z,63.03
2019-06-20T00:16:38.405Z,63.23
2019-06-20T00:17:48.671Z,63.23
2019-06-20T00:18:38.374Z,62.63
2019-06-20T00:19:38.362Z,63.13
2019-06-20T00:20:38.336Z,62.93
2019-06-20T00:21:38.333Z,63.03
2019-06-20T00:22:38.312Z,62.73
2019-06-20T00:23:38.303Z,62.83
2019-06-20T00:24:38.302Z,63.13
2019-06-20T00:25:38.286Z,63.23
2019-06-20T00:26:38.264Z,63.43
2019-06-20T00:27:38.271Z,63.23
2019-06-20T00:28:38.252Z,63.64
2019-06-20T00:29:38.254Z,63.53
2019-06-20T00:30:38.245Z,63.43
2019-06-20T00:31:38.307Z,63.43
2019-06-20T00:32:38.239Z,63.53
2019-06-20T00:33:38.190Z,63.87
2019-06-20T00:34:38.186Z,63.96
2019-06-20T00:35:38.202Z,64.07
2019-06-20T00:36:38.174Z,64.27
2019-06-20T00:37:38.163Z,64.58
2019-06-20T00:38:38.161Z,64.67
2019-06-20T00:39:38.140Z,64.47
2019-06-20T00:40:38.129Z,64.37
2019-06-20T00:41:38.111Z,64.58
2019-06-20T00:42:38.102Z,64.81
2019-06-20T00:43:38.119Z,65.11
2019-06-20T00:44:38.105Z,64.90
2019-06-20T00:45:38.095Z,65.11
2019-06-20T00:46:38.086Z,65.01
2019-06-20T00:47:38.060Z,65.21
2019-06-20T00:48:48.514Z,65.21
2019-06-20T00:49:38.037Z,65.21
2019-06-20T00:50:38.045Z,65.41
2019-06-20T00:51:38.008Z,65.51
2019-06-20T00:52:37.992Z,65.61
2019-06-20T00:53:37.985Z,65.51
2019-06-20T00:54:38.915Z,65.51
2019-06-20T00:55:37.967Z,65.51
2019-06-20T00:56:37.967Z,65.51
2019-06-20T00:57:37.944Z,65.71
2019-06-20T00:58:37.924Z,66.12
2019-06-20T00:59:37.932Z,66.12
2019-06-20T01:00:37.914Z,66.15
2019-06-20T01:01:37.904Z,66.22
2019-06-20T01:02:37.885Z,66.25
2019-06-20T01:03:37.925Z,66.05
2019-06-20T01:04:37.904Z,66.35
2019-06-20T01:05:37.867Z,66.55
2019-06-20T01:06:37.863Z,66.45
2019-06-20T01:07:37.844Z,66.65
2019-06-20T01:08:37.838Z,66.75
2019-06-20T01:09:37.812Z,66.86
2019-06-20T01:10:37.844Z,66.75
2019-06-20T01:11:37.832Z,66.65
2019-06-20T01:12:37.796Z,66.75
2019-06-20T01:13:37.783Z,66.65
2019-06-20T01:14:37.773Z,66.86
2019-06-20T01:15:37.764Z,66.65
2019-06-20T01:16:37.775Z,66.75
2019-06-20T01:17:37.744Z,66.42
2019-06-20T01:18:37.731Z,66.75
2019-06-20T01:19:47.586Z,66.72
2019-06-20T01:20:37.695Z,66.52
2019-06-20T01:21:37.698Z,66.52
2019-06-20T01:22:37.675Z,66.52
2019-06-20T01:23:37.663Z,66.62
2019-06-20T01:24:37.654Z,66.62
2019-06-20T01:25:37.688Z,66.52
2019-06-20T01:26:37.636Z,66.82
2019-06-20T01:27:37.625Z,66.62
2019-06-20T01:28:37.603Z,67.02
2019-06-20T01:29:37.616Z,66.93
2019-06-20T01:30:37.612Z,66.82
2019-06-20T01:31:37.592Z,66.93
2019-06-20T01:32:37.579Z,66.93
2019-06-20T01:33:37.564Z,66.42
2019-06-20T01:34:37.553Z,66.62
2019-06-20T01:35:37.546Z,66.82
2019-06-20T01:36:37.554Z,66.69
2019-06-20T01:37:37.561Z,66.89
2019-06-20T01:38:37.515Z,66.69
2019-06-20T01:39:37.499Z,66.99
2019-06-20T01:40:37.504Z,66.79
2019-06-20T01:41:37.509Z,66.79
2019-06-20T01:42:37.470Z,66.39
2019-06-20T01:43:50.243Z,66.49
2019-06-20T01:44:38.440Z,66.99
2019-06-20T01:45:37.435Z,66.99
2019-06-20T01:46:37.425Z,67.10
2019-06-20T01:47:37.435Z,66.79
2019-06-20T01:48:37.424Z,66.79
2019-06-20T01:49:37.405Z,66.99
2019-06-20T01:50:48.045Z,66.99
2019-06-20T01:51:37.364Z,67.30
2019-06-20T01:52:37.396Z,66.99
2019-06-20T01:53:37.357Z,67.10
2019-06-20T01:54:37.338Z,67.19
2019-06-20T01:55:37.324Z,67.30
2019-06-20T01:56:37.318Z,66.89
2019-06-20T01:57:37.326Z,66.79
2019-06-20T01:58:37.316Z,66.69
2019-06-20T01:59:37.283Z,66.59
2019-06-20T02:00:37.300Z,66.79
2019-06-20T02:01:37.267Z,66.89
2019-06-20T02:02:37.266Z,66.76
2019-06-20T02:03:37.265Z,66.36
2019-06-20T02:04:37.288Z,66.46
2019-06-20T02:05:37.247Z,66.76
2019-06-20T02:06:37.213Z,66.66
2019-06-20T02:07:37.208Z,66.56
2019-06-20T02:08:37.203Z,66.56
2019-06-20T02:09:37.195Z,66.96
2019-06-20T02:10:37.187Z,66.86
2019-06-20T02:11:37.162Z,66.76
2019-06-20T02:12:37.145Z,66.96
2019-06-20T02:13:37.147Z,66.76
2019-06-20T02:14:37.173Z,66.76
2019-06-20T02:15:37.150Z,66.56
2019-06-20T02:16:37.102Z,66.96
2019-06-20T02:17:37.087Z,66.86
2019-06-20T02:18:37.075Z,66.56
2019-06-20T02:19:37.099Z,66.66
2019-06-20T02:20:37.084Z,66.99
2019-06-20T02:21:47.197Z,67.30
2019-06-20T02:22:37.035Z,67.40
2019-06-20T02:23:37.025Z,67.70
2019-06-20T02:24:37.016Z,67.40
2019-06-20T02:25:37.047Z,67.50
2019-06-20T02:26:37.007Z,68.21
2019-06-20T02:27:37.001Z,68.61
2019-06-20T02:28:36.988Z,68.30
2019-06-20T02:29:36.966Z,68.30
2019-06-20T02:30:36.968Z,68.61
2019-06-20T02:31:36.950Z,68.61
2019-06-20T02:32:36.935Z,68.41
2019-06-20T02:33:36.949Z,68.61
2019-06-20T02:34:36.923Z,68.51
2019-06-20T02:35:36.908Z,68.91
2019-06-20T02:36:36.910Z,68.71
2019-06-20T02:37:36.891Z,67.50
2019-06-20T02:38:36.880Z,67.19
2019-06-20T02:39:36.855Z,66.96
2019-06-20T02:40:36.845Z,67.67
2019-06-20T02:41:36.855Z,67.57
2019-06-20T02:42:36.823Z,67.97
2019-06-20T02:43:36.856Z,67.90
2019-06-20T02:44:36.815Z,67.80
2019-06-20T02:45:36.797Z,68.10
2019-06-20T02:46:36.787Z,67.77
2019-06-20T02:47:36.810Z,68.17
2019-06-20T02:48:36.777Z,67.97
2019-06-20T02:49:36.778Z,68.07
2019-06-20T02:50:36.745Z,67.07
2019-06-20T02:51:36.739Z,67.67
2019-06-20T02:52:47.577Z,67.77
2019-06-20T02:53:36.705Z,67.84
2019-06-20T02:54:36.706Z,67.67
2019-06-20T02:55:36.685Z,68.17
2019-06-20T02:56:36.676Z,67.67
2019-06-20T02:57:36.677Z,67.54
2019-06-20T02:58:36.689Z,67.43
2019-06-20T02:59:36.668Z,67.03
2019-06-20T03:00:36.643Z,67.33
2019-06-20T03:01:36.638Z,67.54
2019-06-20T03:02:36.627Z,67.84
2019-06-20T03:03:36.622Z,67.94
2019-06-20T03:04:36.607Z,68.44
2019-06-20T03:05:36.589Z,68.24
2019-06-20T03:06:36.614Z,68.14
2019-06-20T03:07:36.579Z,68.04
2019-06-20T03:08:36.555Z,67.54
2019-06-20T03:09:36.554Z,66.93
2019-06-20T03:10:36.544Z,67.94
2019-06-20T03:11:36.523Z,67.54
2019-06-20T03:12:36.518Z,67.50
2019-06-20T03:13:36.503Z,68.01
2019-06-20T03:14:45.497Z,68.31
2019-06-20T03:15:37.484Z,68.51
2019-06-20T03:16:36.486Z,68.31
2019-06-20T03:17:36.455Z,68.31
2019-06-20T03:18:36.444Z,67.80
2019-06-20T03:19:36.435Z,67.80
2019-06-20T03:20:36.460Z,67.20
2019-06-20T03:21:36.411Z,67.20
2019-06-20T03:22:36.414Z,66.60
2019-06-20T03:23:47.168Z,66.90
2019-06-20T03:24:36.388Z,67.20
2019-06-20T03:25:36.370Z,67.10
2019-06-20T03:26:36.399Z,67.10
2019-06-20T03:27:36.353Z,67.40
2019-06-20T03:28:36.360Z,66.60
2019-06-20T03:29:36.348Z,66.90
2019-06-20T03:30:36.328Z,66.90
2019-06-20T03:31:36.317Z,66.36
2019-06-20T03:32:36.301Z,66.47
2019-06-20T03:33:36.288Z,66.47
2019-06-20T03:34:36.282Z,66.27
2019-06-20T03:35:36.269Z,66.67
2019-06-20T03:36:36.247Z,66.87
2019-06-20T03:37:36.299Z,66.47
2019-06-20T03:38:36.237Z,66.67
2019-06-20T03:39:36.253Z,66.06
2019-06-20T03:40:36.217Z,66.67
2019-06-20T03:41:36.202Z,66.97
2019-06-20T03:42:36.207Z,67.17
2019-06-20T03:43:36.181Z,67.07
2019-06-20T03:44:36.179Z,66.97
2019-06-20T03:45:36.158Z,66.97
2019-06-20T03:46:36.169Z,66.63
2019-06-20T03:47:36.139Z,66.33
2019-06-20T03:48:36.136Z,66.06
2019-06-20T03:49:36.162Z,66.36
2019-06-20T03:50:36.129Z,66.67
2019-06-20T03:51:36.110Z,66.63
2019-06-20T03:52:36.096Z,66.43
2019-06-20T03:53:36.079Z,66.13
2019-06-20T03:54:46.387Z,66.20
2019-06-20T03:55:36.056Z,66.00
2019-06-20T03:56:36.053Z,66.10
2019-06-20T03:57:36.033Z,65.90
2019-06-20T03:58:36.042Z,65.90
2019-06-20T03:59:36.013Z,66.20
2019-06-20T04:00:36.001Z,66.10
2019-06-20T04:01:36.003Z,65.90
2019-06-20T04:02:36.005Z,66.10
2019-06-20T04:03:35.961Z,65.80
2019-06-20T04:04:35.969Z,65.80
2019-06-20T04:05:35.955Z,65.30
2019-06-20T04:06:36.028Z,65.77
2019-06-20T04:07:35.949Z,65.26
2019-06-20T04:08:35.941Z,65.87
2019-06-20T04:09:35.924Z,65.77
2019-06-20T04:10:35.894Z,66.17
2019-06-20T04:11:35.890Z,65.97
2019-06-20T04:12:35.887Z,65.56
2019-06-20T04:13:35.889Z,65.44
2019-06-20T04:14:35.868Z,65.23
2019-06-20T04:15:35.855Z,64.83
2019-06-20T04:16:35.833Z,65.23
2019-06-20T04:17:35.822Z,64.93
2019-06-20T04:18:35.832Z,65.33
2019-06-20T04:19:35.803Z,64.93
2019-06-20T04:20:35.801Z,64.93
2019-06-20T04:21:35.782Z,64.23
2019-06-20T04:22:35.765Z,64.43
2019-06-20T04:23:35.805Z,64.33
2019-06-20T04:24:35.752Z,65.13
2019-06-20T04:25:46.111Z,64.83
2019-06-20T04:26:35.729Z,64.80
2019-06-20T04:27:35.739Z,65.41
2019-06-20T04:28:35.707Z,64.80
2019-06-20T04:29:36.048Z,65.00
2019-06-20T04:30:35.684Z,64.70
2019-06-20T04:31:35.719Z,65.20
2019-06-20T04:32:35.677Z,65.60
2019-06-20T04:33:35.648Z,65.30
2019-06-20T04:34:35.644Z,64.70
2019-06-20T04:35:35.737Z,65.00
2019-06-20T04:36:35.624Z,64.80
2019-06-20T04:37:35.658Z,64.80
2019-06-20T04:38:35.617Z,64.90
2019-06-20T04:39:35.597Z,64.60
2019-06-20T04:40:35.586Z,64.40
2019-06-20T04:41:35.580Z,64.10
2019-06-20T04:42:35.556Z,63.70
2019-06-20T04:43:35.555Z,63.76
2019-06-20T04:44:35.536Z,64.17
2019-06-20T04:45:35.897Z,63.76
2019-06-20T04:46:35.523Z,63.67
2019-06-20T04:47:35.523Z,63.76
2019-06-20T04:48:35.554Z,63.46
2019-06-20T04:49:35.527Z,63.87
2019-06-20T04:50:35.479Z,63.36
2019-06-20T04:51:35.465Z,63.06
2019-06-20T04:52:35.479Z,63.13
2019-06-20T04:53:35.446Z,63.73
2019-06-20T04:54:35.436Z,63.73
2019-06-20T04:55:35.559Z,63.64
2019-06-20T04:56:45.366Z,64.04
2019-06-20T04:57:35.409Z,64.14
2019-06-20T04:58:35.399Z,64.14
2019-06-20T04:59:35.375Z,63.64
2019-06-20T05:00:35.379Z,63.50
2019-06-20T05:01:35.357Z,64.31
2019-06-20T05:02:35.360Z,64.11
2019-06-20T05:03:35.425Z,63.90
2019-06-20T05:04:35.339Z,63.90
2019-06-20T05:05:35.309Z,63.50
2019-06-20T05:06:35.319Z,63.60
2019-06-20T05:07:35.298Z,63.28
2019-06-20T05:08:35.304Z,63.28
2019-06-20T05:09:35.289Z,62.77
2019-06-20T05:10:35.279Z,63.17
2019-06-20T05:11:35.245Z,63.37
2019-06-20T05:12:35.235Z,62.97
2019-06-20T05:13:35.228Z,62.24
2019-06-20T05:14:35.219Z,62.44
2019-06-20T05:15:48.140Z,63.04
2019-06-20T05:16:36.205Z,62.54
2019-06-20T05:17:35.204Z,62.54
2019-06-20T05:18:35.190Z,61.84
2019-06-20T05:19:35.171Z,62.14
2019-06-20T05:20:35.191Z,62.24
2019-06-20T05:21:35.156Z,62.94
2019-06-20T05:22:35.125Z,62.57
2019-06-20T05:23:35.136Z,62.77
2019-06-20T05:24:35.114Z,62.57
2019-06-20T05:25:35.106Z,62.97
2019-06-20T05:26:35.110Z,63.04
2019-06-20T05:27:45.693Z,63.67
2019-06-20T05:28:35.076Z,62.84
2019-06-20T05:29:35.065Z,62.84
2019-06-20T05:30:35.054Z,63.24
2019-06-20T05:31:35.073Z,63.24
2019-06-20T05:32:35.034Z,62.54
2019-06-20T05:33:35.033Z,62.94
2019-06-20T05:34:35.002Z,62.94
2019-06-20T05:35:35.013Z,62.94
2019-06-20T05:36:34.994Z,63.04
2019-06-20T05:37:34.993Z,62.94
2019-06-20T05:38:34.967Z,62.34
2019-06-20T05:39:34.966Z,63.24
2019-06-20T05:40:37.258Z,62.44
2019-06-20T05:41:34.960Z,61.94
2019-06-20T05:42:34.958Z,61.91
2019-06-20T05:43:34.935Z,61.61
2019-06-20T05:44:34.894Z,61.51
2019-06-20T05:45:34.885Z,61.01
2019-06-20T05:46:34.872Z,61.11
2019-06-20T05:47:34.864Z,61.28
2019-06-20T05:48:34.866Z,61.38
2019-06-20T05:49:34.862Z,61.08
2019-06-20T05:50:34.837Z,61.08
2019-06-20T05:51:34.846Z,60.98
2019-06-20T05:52:35.039Z,61.28
2019-06-20T05:53:34.854Z,61.28
2019-06-20T05:54:34.782Z,62.08
2019-06-20T05:55:34.797Z,61.48
2019-06-20T05:56:34.791Z,60.28
2019-06-20T05:57:34.763Z,60.08
2019-06-20T05:58:45.995Z,59.98
2019-06-20T05:59:34.764Z,59.55
2019-06-20T06:00:34.737Z,59.75
2019-06-20T06:01:34.726Z,58.95
2019-06-20T06:02:34.704Z,58.85
2019-06-20T06:03:34.694Z,59.15
2019-06-20T06:04:34.705Z,59.35
2019-06-20T06:05:34.692Z,59.85
2019-06-20T06:06:34.655Z,60.45
2019-06-20T06:07:34.656Z,60.75
2019-06-20T06:08:34.659Z,60.35
2019-06-20T06:09:34.684Z,60.25
2019-06-20T06:10:34.646Z,59.75
2019-06-20T06:11:34.614Z,59.82
2019-06-20T06:12:34.593Z,59.42
2019-06-20T06:13:34.584Z,59.72
2019-06-20T06:14:34.571Z,58.52
2019-06-20T06:15:34.572Z,58.52
2019-06-20T06:16:34.575Z,58.12
2019-06-20T06:17:34.561Z,58.22
2019-06-20T06:18:34.533Z,58.12
2019-06-20T06:19:34.587Z,58.22
2019-06-20T06:20:34.533Z,58.72
2019-06-20T06:21:34.505Z,58.89
2019-06-20T06:22:34.538Z,58.59
2019-06-20T06:23:34.516Z,58.99
2019-06-20T06:24:34.482Z,57.59
2019-06-20T06:25:34.495Z,56.89
2019-06-20T06:26:34.472Z,55.49
2019-06-20T06:27:34.439Z,55.09
2019-06-20T06:28:34.450Z,56.09
2019-06-20T06:29:44.648Z,55.97
2019-06-20T06:30:34.424Z,57.07
2019-06-20T06:31:34.422Z,57.17
2019-06-20T06:32:40.111Z,57.46
2019-06-20T06:33:35.376Z,57.54
2019-06-20T06:34:34.374Z,58.34
2019-06-20T06:35:34.377Z,57.76
2019-06-20T06:36:34.386Z,57.76
2019-06-20T06:37:34.357Z,57.17
2019-06-20T06:38:34.324Z,56.67
2019-06-20T06:39:34.312Z,56.87
2019-06-20T06:40:34.306Z,55.94
2019-06-20T06:41:34.297Z,55.64
2019-06-20T06:42:34.304Z,54.44
2019-06-20T06:43:34.274Z,53.74
2019-06-20T06:44:34.303Z,54.14
2019-06-20T06:45:34.255Z,54.14
2019-06-20T06:46:44.791Z,54.54
2019-06-20T06:47:35.284Z,54.32
2019-06-20T06:48:34.255Z,54.71
2019-06-20T06:49:34.229Z,53.61
2019-06-20T06:50:34.205Z,53.22
2019-06-20T06:51:34.207Z,52.72
2019-06-20T06:52:34.184Z,53.22
2019-06-20T06:53:34.253Z,53.31
2019-06-20T06:54:34.154Z,54.52
2019-06-20T06:55:34.157Z,55.32
2019-06-20T06:56:34.135Z,54.02
2019-06-20T06:57:34.124Z,54.71
2019-06-20T06:58:34.126Z,54.11
2019-06-20T06:59:34.121Z,55.21
2019-06-20T07:00:44.343Z,55.51
2019-06-20T07:01:34.090Z,54.32
2019-06-20T07:02:34.069Z,53.02
2019-06-20T07:03:34.070Z,52.22
2019-06-20T07:04:34.060Z,52.49
2019-06-20T07:05:34.040Z,51.79
2019-06-20T07:06:34.029Z,52.69
2019-06-20T07:07:34.020Z,52.19
2019-06-20T07:08:34.009Z,53.29
2019-06-20T07:09:35.497Z,54.09
2019-06-20T07:10:33.994Z,53.19
2019-06-20T07:11:33.981Z,52.89
2019-06-20T07:12:34.002Z,50.90
2019-06-20T07:13:33.950Z,50.40
2019-06-20T07:14:33.953Z,51.59
2019-06-20T07:15:34.001Z,50.90
2019-06-20T07:16:33.929Z,52.59
2019-06-20T07:17:33.919Z,54.19
2019-06-20T07:18:33.910Z,53.69
2019-06-20T07:19:33.900Z,53.69
2019-06-20T07:20:33.902Z,53.49
2019-06-20T07:21:33.872Z,52.19
2019-06-20T07:22:33.882Z,49.98
2019-06-20T07:23:33.847Z,51.07
2019-06-20T07:24:33.866Z,51.67
2019-06-20T07:25:33.853Z,52.64
2019-06-20T07:26:33.848Z,52.64
2019-06-20T07:27:33.878Z,52.34
2019-06-20T07:28:33.820Z,52.44
2019-06-20T07:29:33.870Z,51.35
2019-06-20T07:30:33.841Z,51.45
2019-06-20T07:31:44.846Z,50.55
2019-06-20T07:32:33.752Z,51.05
2019-06-20T07:33:33.741Z,51.54
2019-06-20T07:34:33.741Z,51.25
2019-06-20T07:35:33.713Z,51.54
2019-06-20T07:36:33.720Z,51.25
2019-06-20T07:37:33.712Z,51.84
2019-06-20T07:38:33.755Z,51.03
2019-06-20T07:39:33.691Z,51.82
2019-06-20T07:40:33.690Z,50.73
2019-06-20T07:41:33.711Z,50.43
2019-06-20T07:42:33.655Z,50.23
2019-06-20T07:43:33.652Z,50.73
2019-06-20T07:44:33.659Z,50.30
2019-06-20T07:45:33.624Z,50.20
2019-06-20T07:46:33.612Z,47.61
2019-06-20T07:47:33.641Z,48.80
2019-06-20T07:48:33.616Z,48.71
2019-06-20T07:49:33.573Z,47.91
2019-06-20T07:50:33.590Z,48.80
2019-06-20T07:51:33.562Z,49.60
2019-06-20T07:52:33.564Z,48.23
2019-06-20T07:53:33.952Z,47.53
2019-06-20T07:54:33.542Z,48.41
2019-06-20T07:55:33.512Z,47.02
2019-06-20T07:56:33.502Z,47.31
2019-06-20T07:57:33.513Z,46.12
2019-06-20T07:58:33.473Z,47.11
2019-06-20T07:59:33.486Z,48.19
2019-06-20T08:00:33.481Z,47.49
2019-06-20T08:01:33.454Z,47.39
2019-06-20T08:02:43.814Z,47.59
2019-06-20T08:03:33.490Z,47.19
2019-06-20T08:04:33.449Z,46.79
2019-06-20T08:05:33.417Z,46.39
2019-06-20T08:06:33.395Z,46.49
2019-06-20T08:07:33.405Z,46.69
2019-06-20T08:08:33.367Z,46.20
2019-06-20T08:09:44.363Z,45.70
2019-06-20T08:10:34.419Z,45.60
2019-06-20T08:11:33.346Z,45.97
2019-06-20T08:12:33.341Z,45.87
2019-06-20T08:13:33.317Z,46.37
2019-06-20T08:14:33.308Z,47.07
2019-06-20T08:15:33.313Z,45.45
2019-06-20T08:16:33.309Z,46.15
2019-06-20T08:17:35.621Z,46.35
2019-06-20T08:18:33.269Z,45.85
2019-06-20T08:19:33.286Z,46.15
2019-06-20T08:20:33.276Z,46.25
2019-06-20T08:21:33.318Z,47.05
2019-06-20T08:22:33.255Z,45.36
2019-06-20T08:23:33.231Z,45.55
2019-06-20T08:24:33.216Z,46.05
2019-06-20T08:25:33.199Z,46.27
2019-06-20T08:26:33.183Z,46.97
2019-06-20T08:27:33.234Z,47.07
2019-06-20T08:28:33.170Z,46.87
2019-06-20T08:29:33.187Z,47.64
2019-06-20T08:30:33.161Z,47.84
2019-06-20T08:31:33.148Z,49.04
2019-06-20T08:32:33.133Z,47.64
2019-06-20T08:33:43.682Z,47.14
2019-06-20T08:34:33.112Z,46.35
2019-06-20T08:35:33.093Z,46.97
2019-06-20T08:36:33.144Z,47.05
2019-06-20T08:37:33.082Z,48.14
2019-06-20T08:38:33.091Z,47.25
2019-06-20T08:39:33.061Z,48.34
2019-06-20T08:40:33.040Z,46.95
2019-06-20T08:41:33.060Z,48.14
2019-06-20T08:42:33.025Z,48.34
2019-06-20T08:43:33.025Z,47.72
2019-06-20T08:44:33.016Z,47.13
2019-06-20T08:45:33.022Z,47.92
2019-06-20T08:46:32.995Z,46.92
2019-06-20T08:47:32.964Z,46.92
2019-06-20T08:48:32.975Z,47.92
2019-06-20T08:49:32.966Z,47.40
2019-06-20T08:50:32.954Z,46.72
2019-06-20T08:51:32.933Z,46.41
2019-06-20T08:52:32.915Z,46.70
2019-06-20T08:53:32.903Z,46.50
2019-06-20T08:54:32.912Z,46.98
2019-06-20T08:55:32.926Z,48.17
2019-06-20T08:56:32.883Z,48.07
2019-06-20T08:57:32.890Z,46.38
2019-06-20T08:58:32.873Z,47.57
2019-06-20T08:59:32.855Z,45.98
2019-06-20T09:00:32.845Z,46.68
2019-06-20T09:01:32.834Z,46.88
2019-06-20T09:02:32.832Z,45.56
2019-06-20T09:03:32.815Z,45.47
2019-06-20T09:04:44.413Z,45.76
2019-06-20T09:05:32.813Z,47.05
2019-06-20T09:06:32.785Z,46.16
2019-06-20T09:07:32.778Z,46.44
2019-06-20T09:08:32.766Z,46.34
2019-06-20T09:09:32.745Z,45.54
2019-06-20T09:10:32.784Z,44.85
2019-06-20T09:11:32.730Z,45.25
2019-06-20T09:12:32.728Z,46.24
2019-06-20T09:13:32.746Z,44.75
2019-06-20T09:14:32.695Z,46.34
2019-06-20T09:15:32.685Z,46.31
2019-06-20T09:16:32.691Z,45.72
2019-06-20T09:17:32.662Z,46.12
2019-06-20T09:18:32.655Z,44.93
2019-06-20T09:19:32.651Z,43.84
2019-06-20T09:20:32.630Z,43.44
2019-06-20T09:21:32.644Z,43.93
2019-06-20T09:22:32.613Z,44.15
2019-06-20T09:23:35.540Z,44.65
2019-06-20T09:24:32.582Z,45.15
2019-06-20T09:25:32.598Z,45.84
2019-06-20T09:26:32.573Z,44.45
2019-06-20T09:27:32.552Z,44.65
2019-06-20T09:28:32.543Z,45.92
2019-06-20T09:29:41.409Z,44.83
2019-06-20T09:30:33.526Z,46.02
2019-06-20T09:31:32.555Z,45.52
2019-06-20T09:32:32.502Z,45.03
2019-06-20T09:33:32.486Z,45.00
2019-06-20T09:34:32.493Z,46.39
2019-06-20T09:35:42.465Z,45.70
2019-06-20T09:36:32.471Z,46.30
2019-06-20T09:37:32.469Z,45.30
2019-06-20T09:38:32.449Z,45.50
2019-06-20T09:39:32.437Z,45.10
2019-06-20T09:40:32.420Z,44.81
2019-06-20T09:41:32.424Z,44.83
2019-06-20T09:42:32.959Z,46.31
2019-06-20T09:43:32.394Z,45.54
2019-06-20T09:44:32.379Z,44.75
2019-06-20T09:45:32.364Z,45.74
2019-06-20T09:46:32.359Z,46.61
2019-06-20T09:47:32.354Z,46.89
2019-06-20T09:48:32.350Z,44.11
2019-06-20T09:49:32.331Z,43.52
2019-06-20T09:50:32.319Z,43.70
2019-06-20T09:51:32.320Z,44.09
2019-06-20T09:52:32.305Z,43.77
2019-06-20T09:53:32.321Z,43.87
2019-06-20T09:54:32.267Z,43.48
2019-06-20T09:55:32.270Z,42.68
2019-06-20T09:56:32.252Z,43.48
2019-06-20T09:57:32.243Z,43.67
2019-06-20T09:58:32.235Z,43.38
2019-06-20T09:59:32.225Z,43.26
2019-06-20T10:00:32.213Z,42.76
2019-06-20T10:01:32.211Z,43.46
2019-06-20T10:02:32.199Z,44.64
2019-06-20T10:03:32.316Z,44.94
2019-06-20T10:04:32.169Z,43.73
2019-06-20T10:05:32.208Z,43.24
2019-06-20T10:06:42.280Z,43.33
2019-06-20T10:07:32.132Z,42.94
2019-06-20T10:08:32.111Z,42.05
2019-06-20T10:09:32.164Z,41.55
2019-06-20T10:10:32.101Z,42.74
2019-06-20T10:11:32.091Z,43.13
2019-06-20T10:12:32.094Z,43.33
2019-06-20T10:13:32.885Z,41.75
2019-06-20T10:14:32.061Z,40.86
2019-06-20T10:15:32.067Z,41.65
2019-06-20T10:16:44.993Z,41.18
2019-06-20T10:17:33.055Z,40.68
2019-06-20T10:18:32.034Z,40.68
2019-06-20T10:19:32.002Z,42.17
2019-06-20T10:20:32.013Z,42.66
2019-06-20T10:21:31.992Z,42.36
2019-06-20T10:22:31.985Z,42.07
2019-06-20T10:23:31.971Z,41.77
2019-06-20T10:24:31.972Z,41.67
2019-06-20T10:25:31.952Z,41.28
2019-06-20T10:26:31.952Z,40.29
2019-06-20T10:27:31.922Z,41.77
2019-06-20T10:28:31.941Z,42.57
2019-06-20T10:29:31.914Z,41.95
2019-06-20T10:30:31.900Z,42.05
2019-06-20T10:31:31.903Z,42.44
2019-06-20T10:32:31.906Z,42.74
2019-06-20T10:33:31.876Z,40.96
2019-06-20T10:34:31.864Z,42.54
2019-06-20T10:35:31.857Z,41.85
2019-06-20T10:36:31.844Z,40.15
2019-06-20T10:37:45.074Z,39.85
2019-06-20T10:38:31.810Z,40.33
2019-06-20T10:39:31.808Z,41.02
2019-06-20T10:40:31.795Z,40.72
2019-06-20T10:41:31.779Z,39.97
2019-06-20T10:42:31.820Z,40.68
2019-06-20T10:43:31.769Z,41.89
2019-06-20T10:44:31.752Z,41.60
2019-06-20T10:45:31.747Z,43.08
2019-06-20T10:46:31.752Z,43.00
2019-06-20T10:47:35.775Z,43.20
2019-06-20T10:48:31.726Z,43.82
2019-06-20T10:49:31.715Z,43.10
2019-06-20T10:50:31.698Z,43.97
2019-06-20T10:51:31.683Z,42.49
2019-06-20T10:52:31.673Z,41.52
2019-06-20T10:53:31.661Z,42.41
2019-06-20T10:54:31.652Z,43.40
2019-06-20T10:55:31.653Z,42.19
2019-06-20T10:56:31.636Z,42.96
2019-06-20T10:57:31.624Z,43.06
2019-06-20T10:58:31.626Z,40.47
2019-06-20T10:59:31.601Z,41.75
2019-06-20T11:00:32.016Z,41.06
2019-06-20T11:01:31.573Z,40.86
2019-06-20T11:02:31.565Z,42.25
2019-06-20T11:03:31.575Z,41.65
2019-06-20T11:04:31.545Z,42.32
2019-06-20T11:05:31.521Z,42.01
2019-06-20T11:06:31.522Z,44.26
2019-06-20T11:07:31.534Z,42.48
2019-06-20T11:08:43.270Z,40.70
2019-06-20T11:09:31.500Z,39.40
2019-06-20T11:10:31.491Z,40.98
2019-06-20T11:11:31.508Z,38.81
2019-06-20T11:12:42.845Z,39.50
2019-06-20T11:13:32.447Z,39.70
2019-06-20T11:14:31.459Z,38.81
2019-06-20T11:15:31.453Z,38.69
2019-06-20T11:16:31.430Z,37.80
2019-06-20T11:17:31.410Z,37.54
2019-06-20T11:18:31.442Z,38.94
2019-06-20T11:19:31.402Z,38.37
2019-06-20T11:20:31.370Z,38.47
2019-06-20T11:21:31.360Z,38.35
2019-06-20T11:22:31.368Z,41.22
2019-06-20T11:23:31.363Z,40.33
2019-06-20T11:24:31.378Z,40.80
2019-06-20T11:25:31.319Z,40.11
2019-06-20T11:26:31.314Z,40.21
2019-06-20T11:27:31.297Z,40.21
2019-06-20T11:28:31.300Z,40.19
2019-06-20T11:29:31.293Z,40.48
2019-06-20T11:30:44.953Z,38.82
2019-06-20T11:31:32.269Z,39.43
2019-06-20T11:32:31.250Z,41.22
2019-06-20T11:33:31.251Z,41.99
2019-06-20T11:34:31.251Z,40.29
2019-06-20T11:35:31.220Z,40.98
2019-06-20T11:36:31.270Z,41.25
2019-06-20T11:37:31.200Z,41.67
2019-06-20T11:38:31.197Z,41.49
2019-06-20T11:39:43.249Z,40.72
2019-06-20T11:40:31.167Z,40.31
2019-06-20T11:41:31.157Z,41.97
2019-06-20T11:42:31.172Z,39.58
2019-06-20T11:43:31.140Z,42.74
2019-06-20T11:44:31.126Z,41.17
2019-06-20T11:45:31.138Z,42.58
2019-06-20T11:46:31.122Z,41.52
2019-06-20T11:47:31.099Z,41.71
2019-06-20T11:48:31.099Z,42.82
2019-06-20T11:49:31.091Z,42.32
2019-06-20T11:50:31.080Z,41.65
2019-06-20T11:51:31.049Z,42.74
2019-06-20T11:52:35.366Z,42.94
2019-06-20T11:53:33.695Z,41.55
2019-06-20T11:54:31.865Z,41.81
2019-06-20T11:55:31.017Z,41.59
2019-06-20T11:56:31.017Z,41.08
2019-06-20T11:57:31.050Z,42.36
2019-06-20T11:58:30.988Z,40.76
2019-06-20T11:59:30.969Z,41.53
2019-06-20T12:00:30.969Z,40.27
2019-06-20T12:01:33.188Z,41.08
2019-06-20T12:02:30.950Z,38.49
2019-06-20T12:03:30.942Z,41.08
2019-06-20T12:04:30.931Z,39.28
2019-06-20T12:05:30.924Z,41.24
2019-06-20T12:06:30.913Z,41.93
2019-06-20T12:07:30.918Z,41.51
2019-06-20T12:08:30.950Z,38.45
2019-06-20T12:09:30.879Z,39.94
2019-06-20T12:10:41.339Z,37.76
2019-06-20T12:11:30.860Z,41.00
2019-06-20T12:12:30.878Z,39.32
2019-06-20T12:13:30.829Z,39.32
2019-06-20T12:14:30.899Z,39.34
2019-06-20T12:15:30.834Z,39.58
2019-06-20T12:16:30.812Z,40.78
2019-06-20T12:17:30.794Z,40.39
2019-06-20T12:18:30.803Z,42.19
2019-06-20T12:19:30.794Z,40.90
2019-06-20T12:20:30.762Z,42.21
2019-06-20T12:21:30.753Z,41.99
2019-06-20T12:22:30.740Z,40.31
2019-06-20T12:23:30.730Z,39.40
2019-06-20T12:24:30.867Z,41.06
2019-06-20T12:25:30.738Z,42.34
2019-06-20T12:26:30.700Z,42.02
2019-06-20T12:27:30.692Z,39.36
2019-06-20T12:28:30.685Z,39.87
2019-06-20T12:29:30.673Z,40.66
2019-06-20T12:30:30.719Z,40.86
2019-06-20T12:31:30.641Z,41.67
2019-06-20T12:32:30.657Z,39.79
2019-06-20T12:33:30.646Z,39.81
2019-06-20T12:34:30.633Z,41.49
2019-06-20T12:35:30.623Z,41.97
2019-06-20T12:36:30.615Z,41.65
2019-06-20T12:37:30.607Z,41.75
2019-06-20T12:38:30.572Z,41.14
2019-06-20T12:39:30.572Z,40.45
2019-06-20T12:40:30.565Z,40.33
2019-06-20T12:41:43.202Z,39.06
2019-06-20T12:42:30.542Z,38.28
2019-06-20T12:43:30.531Z,39.78
2019-06-20T12:44:30.528Z,38.51
2019-06-20T12:45:30.494Z,39.99
2019-06-20T12:46:30.503Z,40.86
2019-06-20T12:47:30.505Z,38.10
2019-06-20T12:48:30.495Z,37.90
2019-06-20T12:49:30.484Z,39.60
2019-06-20T12:50:30.463Z,40.69
2019-06-20T12:51:30.480Z,40.21
2019-06-20T12:52:30.448Z,39.91